This is the latest recevied weather packets stored in our database for station/object F8BJE-13. If no packets are shown the sender has not sent any weather packets the latest 10 day(s).
| Time | Temp. | Humidity | Pressure | Rain* | Wind** | Luminosity | Snow |
|---|---|---|---|---|---|---|---|
| 1777531223 | 15.56° C | 37% | 1018.7 hPa | 0 mm | - | - | - |
| 1777529423 | 13.89° C | 43% | 1018.8 hPa | 0 mm | - | - | - |
| 1777527623 | 9.44° C | 60% | 1018.9 hPa | 0 mm | - | - | - |
| 1777525823 | 7.78° C | 61% | 1018.5 hPa | 0 mm | - | - | - |
| 1777524023 | 7.78° C | 61% | 1018.4 hPa | 0 mm | - | - | - |
| 1777522225 | 7.78° C | 62% | 1018.1 hPa | 0 mm | - | - | - |
| 1777520425 | 8.33° C | 62% | 1018 hPa | 0 mm | - | - | - |
| 1777518625 | 8.33° C | 62% | 1018 hPa | 0 mm | - | - | - |
| 1777516823 | 8.89° C | 62% | 1017.9 hPa | 0 mm | - | - | - |
| 1777515024 | 9.44° C | 62% | 1017.5 hPa | 0 mm | - | - | - |
| 1777513224 | 9.44° C | 62% | 1017.4 hPa | 0 mm | - | - | - |
| 1777511423 | 10° C | 62% | 1017.5 hPa | 0 mm | - | - | - |
| 1777509625 | 10° C | 59% | 1017.5 hPa | 0 mm | - | - | - |
| 1777507825 | 10.56° C | 59% | 1017.4 hPa | 0 mm | - | - | - |
| 1777506025 | 11.11° C | 55% | 1017.4 hPa | 0 mm | - | - | - |
| 1777504223 | 12.22° C | 53% | 1017.1 hPa | 0 mm | - | - | - |
| 1777502425 | 12.22° C | 53% | 1016.8 hPa | 0 mm | - | - | - |
| 1777500624 | 12.78° C | 53% | 1016.9 hPa | 0 mm | - | - | - |
| 1777498825 | 12.78° C | 56% | 1016.6 hPa | 0 mm | - | - | - |
| 1777497024 | 13.33° C | 60% | 1016.5 hPa | 0 mm | - | - | - |
| 1777495224 | 13.89° C | 60% | 1016.4 hPa | 0 mm | - | - | - |
| 1777493424 | 15° C | 57% | 1016.1 hPa | 0 mm | - | - | - |
| 1777491624 | 15.56° C | 51% | 1015.8 hPa | 0 mm | - | - | - |
| 1777489823 | 16.67° C | 50% | 1015.2 hPa | 0 mm | - | - | - |
| 1777488023 | 17.78° C | 46% | 1015.1 hPa | 0 mm | - | - | - |
* Rain latest hour (hover to see other rain measurements)
** Current wind speed in m/s (hover to see current wind gust speed)